Time;durP1;ratioP1;P1;durP2;ratioP2;P2;SDS_P1;SDS_P2;PMS_P1;PMS_P2;Temp;Humidity;BMP_temperature;BMP_pressure;BME280_temperature;BME280_humidity;BME280_pressure;Samples;Min_cycle;Max_cycle;Signal;HPM_P1;HPM_P2
2023/09/10 00:02:01;;;;;;;42.13;38.88;;;16.00;99.90;;;;;;6133244;23;20013;-80
2023/09/10 00:04:32;;;;;;;40.28;37.38;;;15.90;99.90;;;;;;6133766;23;20099;-79
2023/09/10 00:07:07;;;;;;;38.28;35.17;;;15.90;99.90;;;;;;6137441;23;20112;-79
2023/09/10 00:09:35;;;;;;;43.92;40.53;;;16.00;99.90;;;;;;6146104;23;20021;-79
2023/09/10 00:12:03;;;;;;;40.47;37.47;;;15.90;99.90;;;;;;6138083;23;20472;-79
2023/09/10 00:14:32;;;;;;;44.03;40.63;;;15.90;99.90;;;;;;6137570;23;20456;-79
2023/09/10 00:17:03;;;;;;;40.95;37.88;;;15.90;99.90;;;;;;6136241;23;20071;-78
2023/09/10 00:19:31;;;;;;;54.40;49.30;;;15.80;99.90;;;;;;6137303;23;20013;-79
2023/09/10 00:21:57;;;;;;;44.95;41.58;;;15.90;99.90;;;;;;6135095;23;20016;-79
2023/09/10 00:24:28;;;;;;;52.80;48.17;;;15.80;99.90;;;;;;6137298;23;20028;-79
2023/09/10 00:26:56;;;;;;;43.47;39.97;;;15.80;99.90;;;;;;6138194;23;20017;-79
2023/09/10 00:29:25;;;;;;;64.32;57.92;;;15.80;99.90;;;;;;6137187;23;20505;-79
2023/09/10 00:31:51;;;;;;;50.72;46.58;;;15.90;99.90;;;;;;6136943;23;20042;-80
2023/09/10 00:34:27;;;;;;;53.55;48.58;;;15.80;99.90;;;;;;6137486;23;20017;-79
2023/09/10 00:36:56;;;;;;;92.85;85.10;;;15.80;99.90;;;;;;6136550;23;20453;-79
2023/09/10 00:39:22;;;;;;;80.60;72.28;;;15.90;99.90;;;;;;6135759;23;20017;-79
2023/09/10 00:41:53;;;;;;;102.88;92.93;;;15.80;99.90;;;;;;6136161;23;20453;-80
2023/09/10 00:44:26;;;;;;;50.88;46.97;;;15.90;99.90;;;;;;6135996;23;20016;-79
2023/09/10 00:46:58;;;;;;;54.03;49.53;;;16.00;99.90;;;;;;6136338;23;20092;-78
2023/09/10 00:49:30;;;;;;;51.80;47.53;;;15.90;99.90;;;;;;6135971;23;20017;-79
2023/09/10 00:52:02;;;;;;;42.40;39.08;;;15.90;99.90;;;;;;6159952;23;20094;-79
2023/09/10 00:54:34;;;;;;;40.58;37.45;;;15.90;99.90;;;;;;6135330;23;20365;-79
2023/09/10 00:57:01;;;;;;;47.60;44.00;;;15.90;99.90;;;;;;6134856;23;20045;-79
2023/09/10 00:59:31;;;;;;;49.88;45.92;;;15.80;99.90;;;;;;6134900;23;20445;-79
2023/09/10 01:02:02;;;;;;;47.78;43.72;;;15.80;99.90;;;;;;6134002;23;20144;-79
2023/09/10 01:04:32;;;;;;;56.55;52.13;;;15.80;99.90;;;;;;6134894;23;20017;-80
2023/09/10 01:06:59;;;;;;;48.75;44.97;;;15.70;99.90;;;;;;6135020;23;20017;-79
2023/09/10 01:09:27;;;;;;;42.50;38.95;;;15.70;99.90;;;;;;6159541;23;20524;-79
2023/09/10 01:11:59;;;;;;;46.35;42.65;;;15.70;99.90;;;;;;6133406;23;20527;-79
2023/09/10 01:14:36;;;;;;;37.85;34.63;;;15.60;99.90;;;;;;6133488;23;20340;-78
2023/09/10 01:17:23;;;;;;;61.53;55.50;;;15.60;99.90;;;;;;6135292;23;20013;-79
2023/09/10 01:19:52;;;;;;;51.30;46.67;;;15.60;99.90;;;;;;6134804;23;20013;-79
2023/09/10 01:22:36;;;;;;;62.55;56.55;;;15.60;99.90;;;;;;6134900;23;20341;-79
2023/09/10 01:25:03;;;;;;;47.70;44.10;;;15.60;99.90;;;;;;6135747;23;20103;-79
2023/09/10 01:27:29;;;;;;;53.22;49.05;;;15.50;99.90;;;;;;6136862;23;20457;-79
2023/09/10 01:29:55;;;;;;;46.05;42.42;;;15.50;99.90;;;;;;6137031;23;20484;-79
2023/09/10 01:32:36;;;;;;;42.72;39.35;;;15.50;99.90;;;;;;6136096;23;20013;-79
2023/09/10 01:35:17;;;;;;;47.70;43.78;;;15.50;99.90;;;;;;6161280;23;20365;-79
2023/09/10 01:37:52;;;;;;;46.70;42.42;;;15.50;99.90;;;;;;6136885;23;20071;-79
2023/09/10 01:40:23;;;;;;;55.40;51.00;;;15.50;99.90;;;;;;6136983;23;20021;-79
2023/09/10 01:42:52;;;;;;;71.80;65.90;;;15.40;99.90;;;;;;6176444;23;20088;-79
2023/09/10 01:45:25;;;;;;;62.03;56.90;;;15.40;99.90;;;;;;6140025;23;20052;-79
2023/09/10 01:47:54;;;;;;;60.22;55.53;;;15.50;99.90;;;;;;6139991;23;20048;-79
2023/09/10 01:50:25;;;;;;;63.30;58.17;;;15.40;99.90;;;;;;6139119;23;20021;-79
2023/09/10 01:52:51;;;;;;;55.92;51.50;;;15.50;99.90;;;;;;6163538;23;20013;-79
2023/09/10 01:55:17;;;;;;;54.05;49.63;;;15.40;99.90;;;;;;6138460;23;20047;-79
2023/09/10 01:57:46;;;;;;;46.55;42.97;;;15.40;99.90;;;;;;6138268;23;20083;-78
2023/09/10 02:00:12;;;;;;;54.50;50.30;;;15.40;99.90;;;;;;6160938;23;20100;-79
2023/09/10 02:02:40;;;;;;;61.50;56.13;;;15.40;99.90;;;;;;6162544;23;20020;-79
2023/09/10 02:05:12;;;;;;;56.50;51.03;;;15.40;99.90;;;;;;6138089;23;20261;-79
2023/09/10 02:07:40;;;;;;;56.08;51.25;;;15.40;99.90;;;;;;6137740;23;20075;-79
2023/09/10 02:10:10;;;;;;;58.70;53.90;;;15.40;99.90;;;;;;6137388;23;20378;-79
2023/09/10 02:12:37;;;;;;;71.93;66.22;;;15.40;99.90;;;;;;6136333;23;20009;-79
2023/09/10 02:15:05;;;;;;;73.15;67.35;;;15.40;99.90;;;;;;6137281;23;20051;-79
2023/09/10 02:17:35;;;;;;;88.68;80.95;;;15.40;99.90;;;;;;6137442;23;20091;-78
2023/09/10 02:20:01;;;;;;;76.10;69.45;;;15.40;99.90;;;;;;6136373;23;20017;-79
2023/09/10 02:22:27;;;;;;;77.05;70.38;;;15.40;99.90;;;;;;6137721;23;20012;-79
2023/09/10 02:24:53;;;;;;;70.15;64.00;;;15.30;99.90;;;;;;6137178;23;20457;-79
2023/09/10 02:27:19;;;;;;;83.80;76.10;;;15.30;99.90;;;;;;6137258;23;20019;-79
2023/09/10 02:29:48;;;;;;;74.10;67.85;;;15.30;99.90;;;;;;6161762;23;20017;-79
2023/09/10 02:32:15;;;;;;;90.68;81.43;;;15.40;99.90;;;;;;6137942;23;20477;-79
2023/09/10 02:34:41;;;;;;;92.60;78.22;;;15.30;99.90;;;;;;6137519;23;20013;-78
2023/09/10 02:37:07;;;;;;;57.08;51.60;;;15.30;99.90;;;;;;6162302;23;20020;-79
2023/09/10 02:39:35;;;;;;;60.28;55.42;;;15.30;99.90;;;;;;6137927;23;20083;-79
2023/09/10 02:42:04;;;;;;;69.95;64.20;;;15.20;99.90;;;;;;6138315;23;20013;-79
2023/09/10 02:44:30;;;;;;;67.72;62.00;;;15.30;99.90;;;;;;6162339;23;20327;-78
2023/09/10 02:46:55;;;;;;;69.65;63.55;;;15.30;99.90;;;;;;6137384;23;20024;-79
2023/09/10 02:49:24;;;;;;;68.65;62.58;;;15.20;99.90;;;;;;6162776;23;20019;-79
2023/09/10 02:51:54;;;;;;;70.25;63.55;;;15.20;99.90;;;;;;6163050;23;20024;-79
2023/09/10 02:54:20;;;;;;;66.20;60.70;;;15.20;99.90;;;;;;6138469;23;20096;-79
2023/09/10 02:56:46;;;;;;;68.35;62.20;;;15.20;99.90;;;;;;6163301;23;20012;-79
2023/09/10 02:59:28;;;;;;;64.40;58.50;;;15.20;99.90;;;;;;6139113;23;20024;-79
2023/09/10 03:01:54;;;;;;;91.40;79.75;;;15.20;99.90;;;;;;6137713;23;20017;-79
2023/09/10 03:04:27;;;;;;;102.55;90.97;;;15.20;99.90;;;;;;6138487;23;20365;-79
2023/09/10 03:06:53;;;;;;;74.95;68.10;;;15.20;99.90;;;;;;6139342;23;20441;-79
2023/09/10 03:09:21;;;;;;;72.45;66.13;;;15.20;99.90;;;;;;6139367;23;20092;-78
2023/09/10 03:11:47;;;;;;;75.43;69.13;;;15.20;99.90;;;;;;6165359;23;20453;-78
2023/09/10 03:14:13;;;;;;;91.80;83.45;;;15.10;99.90;;;;;;6141484;23;20024;-79
2023/09/10 03:16:39;;;;;;;71.38;65.63;;;15.20;99.90;;;;;;6168386;23;20024;-79
2023/09/10 03:19:05;;;;;;;81.30;74.38;;;15.10;99.90;;;;;;6169413;23;20047;-78
2023/09/10 03:21:31;;;;;;;74.65;66.70;;;15.10;99.90;;;;;;6140439;23;20013;-79
2023/09/10 03:24:06;;;;;;;60.92;54.55;;;15.10;99.90;;;;;;6134206;23;20017;-79
2023/09/10 03:26:31;;;;;;;92.93;83.65;;;15.10;99.90;;;;;;6171773;23;20017;-82
2023/09/10 03:28:57;;;;;;;94.85;85.60;;;15.10;99.90;;;;;;6157632;23;20023;-83
2023/09/10 03:31:22;;;;;;;86.55;79.18;;;15.10;99.90;;;;;;6158092;23;20013;-82
2023/09/10 03:33:49;;;;;;;73.65;67.03;;;15.10;99.90;;;;;;6158043;23;20051;-82
2023/09/10 03:36:14;;;;;;;100.43;90.82;;;15.00;99.90;;;;;;6157659;23;20351;-82
2023/09/10 03:38:40;;;;;;;104.45;94.85;;;15.10;99.90;;;;;;6182386;23;20017;-82
2023/09/10 03:41:05;;;;;;;105.50;95.93;;;15.10;99.90;;;;;;6182873;23;20064;-83
2023/09/10 03:43:31;;;;;;;77.95;70.97;;;15.00;99.90;;;;;;6157963;23;20471;-82
2023/09/10 03:45:56;;;;;;;97.82;88.35;;;15.10;99.90;;;;;;6157656;23;20017;-82
2023/09/10 03:48:22;;;;;;;94.75;86.07;;;15.10;99.90;;;;;;6182251;23;20358;-83
2023/09/10 03:50:48;;;;;;;89.50;81.50;;;15.00;99.90;;;;;;6157999;23;20013;-82
2023/09/10 03:53:14;;;;;;;79.03;72.10;;;15.00;99.90;;;;;;6158058;23;20013;-83
2023/09/10 03:55:40;;;;;;;90.95;83.07;;;15.00;99.90;;;;;;6157491;23;20016;-83
2023/09/10 03:58:06;;;;;;;87.43;79.32;;;15.00;99.90;;;;;;6157289;23;20120;-83
2023/09/10 04:00:33;;;;;;;96.03;87.43;;;15.00;99.90;;;;;;6157529;23;20040;-82
2023/09/10 04:02:59;;;;;;;87.07;79.78;;;15.00;99.90;;;;;;6158443;23;20009;-82
2023/09/10 04:05:24;;;;;;;86.43;79.10;;;15.00;99.90;;;;;;6182336;23;20027;-82
2023/09/10 04:07:50;;;;;;;97.45;89.18;;;15.00;99.90;;;;;;6182752;23;20012;-82
2023/09/10 04:10:16;;;;;;;104.85;94.60;;;15.00;99.90;;;;;;6157069;23;20025;-82
2023/09/10 04:12:42;;;;;;;77.88;71.45;;;15.00;99.90;;;;;;6157562;23;20013;-82
2023/09/10 04:15:08;;;;;;;103.55;93.75;;;15.00;99.90;;;;;;6181980;23;20013;-82
2023/09/10 04:17:33;;;;;;;208.98;133.48;;;15.00;99.90;;;;;;6182455;23;20009;-82
2023/09/10 04:19:59;;;;;;;141.07;118.22;;;15.00;99.90;;;;;;6157662;23;20068;-82
2023/09/10 04:22:25;;;;;;;109.85;99.57;;;15.00;99.90;;;;;;6182531;23;20017;-83
2023/09/10 04:24:50;;;;;;;96.78;88.18;;;15.00;99.90;;;;;;6181419;23;20489;-82
2023/09/10 04:27:16;;;;;;;76.22;69.65;;;14.90;99.90;;;;;;6157573;23;20100;-82
2023/09/10 04:29:42;;;;;;;74.95;68.55;;;14.90;99.90;;;;;;6157494;23;20016;-82
2023/09/10 04:32:08;;;;;;;79.05;72.20;;;14.90;99.90;;;;;;6182889;23;20140;-82
2023/09/10 04:34:34;;;;;;;58.63;54.20;;;14.90;99.90;;;;;;6157100;23;20009;-82
2023/09/10 04:36:59;;;;;;;63.42;58.25;;;14.90;99.90;;;;;;6182218;23;20013;-82
2023/09/10 04:39:26;;;;;;;56.25;51.80;;;14.90;99.90;;;;;;6181722;23;20013;-82
2023/09/10 04:41:51;;;;;;;56.35;51.90;;;14.80;99.90;;;;;;6157475;23;20009;-83
2023/09/10 04:44:17;;;;;;;84.15;76.40;;;14.80;99.90;;;;;;6181880;23;20461;-82
2023/09/10 04:46:42;;;;;;;94.78;86.47;;;14.80;99.90;;;;;;6157112;23;20458;-82
2023/09/10 04:49:08;;;;;;;76.25;69.53;;;14.80;99.90;;;;;;6182050;23;20036;-82
2023/09/10 04:51:34;;;;;;;69.88;64.07;;;14.80;99.90;;;;;;6156977;23;20090;-83
2023/09/10 04:53:59;;;;;;;74.97;68.53;;;14.80;99.90;;;;;;6157256;23;20017;-84
2023/09/10 04:56:25;;;;;;;124.97;96.00;;;14.70;99.90;;;;;;6158186;23;20020;-82
2023/09/10 04:58:50;;;;;;;78.00;70.90;;;14.70;99.90;;;;;;6185600;23;20453;-82
2023/09/10 05:01:16;;;;;;;68.15;62.55;;;14.70;99.90;;;;;;6160443;23;20360;-83
2023/09/10 05:03:42;;;;;;;78.05;71.22;;;14.80;99.90;;;;;;6160167;23;20009;-83
2023/09/10 05:06:08;;;;;;;65.43;60.22;;;14.70;99.90;;;;;;6185380;23;20062;-83
2023/09/10 05:08:34;;;;;;;98.75;89.60;;;14.70;99.90;;;;;;6185260;23;20104;-82
2023/09/10 05:11:00;;;;;;;82.10;75.22;;;14.70;99.90;;;;;;6185766;23;20040;-82
2023/09/10 05:13:26;;;;;;;77.88;71.15;;;14.70;99.90;;;;;;6159663;23;20075;-82
2023/09/10 05:15:57;;;;;;;77.22;70.68;;;14.70;99.90;;;;;;6158904;23;20017;-82
2023/09/10 05:18:26;;;;;;;62.60;57.75;;;14.70;99.90;;;;;;6184885;23;20392;-83
2023/09/10 05:20:53;;;;;;;64.57;59.70;;;14.70;99.90;;;;;;6185120;23;20017;-82
2023/09/10 05:23:23;;;;;;;108.20;97.05;;;14.70;99.90;;;;;;6160393;23;20013;-83
2023/09/10 05:25:49;;;;;;;74.38;68.43;;;14.70;99.90;;;;;;6160283;23;20016;-83
2023/09/10 05:28:15;;;;;;;90.05;82.60;;;14.70;99.90;;;;;;6185133;23;20023;-82
2023/09/10 05:30:41;;;;;;;88.60;81.28;;;14.70;99.90;;;;;;6159910;23;20013;-82
2023/09/10 05:33:06;;;;;;;72.47;66.70;;;14.80;99.90;;;;;;6185505;23;20461;-82
2023/09/10 05:35:32;;;;;;;77.55;71.20;;;14.80;99.90;;;;;;6160156;23;20400;-82
2023/09/10 05:37:58;;;;;;;74.50;68.65;;;14.80;99.90;;;;;;6160682;23;20005;-83
2023/09/10 05:40:25;;;;;;;92.00;84.57;;;14.80;99.90;;;;;;6185322;23;20009;-83
2023/09/10 05:42:51;;;;;;;81.22;74.63;;;14.90;99.90;;;;;;6185341;23;20515;-82
2023/09/10 05:45:16;;;;;;;76.53;70.32;;;14.90;99.90;;;;;;6159520;23;20017;-83
2023/09/10 05:47:42;;;;;;;90.50;81.97;;;15.00;99.90;;;;;;6185291;23;20109;-83
2023/09/10 05:50:08;;;;;;;76.05;70.05;;;15.00;99.90;;;;;;6160539;23;20017;-83
2023/09/10 05:52:33;;;;;;;73.72;68.03;;;15.00;99.90;;;;;;6185630;23;20006;-83
2023/09/10 05:54:59;;;;;;;89.03;81.55;;;15.10;99.90;;;;;;6159630;23;20021;-83
2023/09/10 05:57:24;;;;;;;90.95;82.93;;;15.10;99.90;;;;;;6184929;23;20005;-83
2023/09/10 05:59:50;;;;;;;104.07;95.43;;;15.20;99.90;;;;;;6184988;23;20009;-83
2023/09/10 06:02:16;;;;;;;94.05;86.47;;;15.30;99.90;;;;;;6160626;23;20075;-83
2023/09/10 06:04:41;;;;;;;230.13;131.15;;;15.30;99.90;;;;;;6184522;23;20020;-83
2023/09/10 06:07:07;;;;;;;102.00;93.45;;;15.30;99.90;;;;;;6159894;23;20013;-83
2023/09/10 06:09:33;;;;;;;156.23;124.88;;;15.40;99.90;;;;;;6182567;23;20023;-83
2023/09/10 06:12:02;;;;;;;132.52;118.15;;;15.50;99.90;;;;;;6158669;23;20009;-83
2023/09/10 06:14:30;;;;;;;111.50;101.07;;;15.60;99.90;;;;;;6183516;23;20009;-82
2023/09/10 06:16:58;;;;;;;109.30;99.95;;;15.60;99.90;;;;;;6183988;23;20384;-85
2023/09/10 06:19:24;;;;;;;90.80;83.82;;;15.70;99.90;;;;;;6184169;23;20028;-81
2023/09/10 06:21:49;;;;;;;109.93;100.65;;;15.80;99.90;;;;;;6183922;23;20017;-80
2023/09/10 06:24:15;;;;;;;117.82;107.13;;;15.80;99.90;;;;;;6157192;23;20401;-79
2023/09/10 06:26:41;;;;;;;109.15;99.72;;;15.90;99.90;;;;;;6157630;23;20441;-80
2023/09/10 06:29:07;;;;;;;109.10;99.90;;;16.00;99.90;;;;;;6157535;23;20009;-80
2023/09/10 06:31:32;;;;;;;309.50;188.85;;;16.10;99.90;;;;;;6158591;23;20004;-80
2023/09/10 06:33:58;;;;;;;200.77;162.32;;;16.20;99.90;;;;;;6158371;23;20009;-80
2023/09/10 06:36:24;;;;;;;164.05;146.05;;;16.30;99.90;;;;;;6181980;23;20016;-80
2023/09/10 06:38:50;;;;;;;167.90;150.77;;;16.30;99.90;;;;;;6182545;23;20013;-80
2023/09/10 06:41:16;;;;;;;498.17;234.98;;;16.50;99.90;;;;;;6183295;23;20017;-80
2023/09/10 06:43:42;;;;;;;218.25;174.32;;;16.60;99.90;;;;;;6182471;23;20017;-81
2023/09/10 06:46:07;;;;;;;227.88;179.43;;;16.70;99.90;;;;;;6181376;23;20350;-81
2023/09/10 06:48:33;;;;;;;202.20;174.00;;;16.90;99.90;;;;;;6182802;23;20024;-81
2023/09/10 06:51:00;;;;;;;437.35;232.85;;;17.00;99.90;;;;;;6181221;23;20014;-81
2023/09/10 06:53:27;;;;;;;312.08;203.63;;;17.00;99.90;;;;;;6182725;23;20349;-81
2023/09/10 06:55:53;;;;;;;374.98;214.88;;;17.10;99.90;;;;;;6182422;23;20016;-81
2023/09/10 06:58:19;;;;;;;178.50;161.07;;;17.20;99.90;;;;;;6183289;23;20342;-82
2023/09/10 07:00:45;;;;;;;185.52;165.77;;;17.30;99.90;;;;;;6158052;23;20009;-81
2023/09/10 07:03:11;;;;;;;212.30;180.32;;;17.40;99.90;;;;;;6157209;23;20342;-81
2023/09/10 07:05:41;;;;;;;175.95;159.80;;;17.60;99.90;;;;;;6182536;23;20385;-81
2023/09/10 07:08:08;;;;;;;203.60;183.30;;;17.70;99.90;;;;;;6157774;23;20005;-81
2023/09/10 07:10:34;;;;;;;168.45;153.35;;;17.80;99.90;;;;;;6158203;23;20336;-80
2023/09/10 07:13:05;;;;;;;176.65;159.70;;;17.90;99.90;;;;;;6183048;23;20013;-81
2023/09/10 07:15:31;;;;;;;162.18;147.20;;;18.00;99.90;;;;;;6182850;23;20047;-81
2023/09/10 07:17:57;;;;;;;155.27;140.73;;;18.10;99.90;;;;;;6183381;23;20035;-81
2023/09/10 07:20:22;;;;;;;139.77;127.72;;;18.20;99.90;;;;;;6158366;23;20457;-81
2023/09/10 07:22:48;;;;;;;132.85;121.70;;;18.30;99.90;;;;;;6157979;23;20063;-82
2023/09/10 07:25:13;;;;;;;154.75;140.05;;;18.40;99.90;;;;;;6157824;23;20013;-82
2023/09/10 07:27:39;;;;;;;133.40;122.35;;;18.50;99.90;;;;;;6183217;23;20511;-81
2023/09/10 07:30:05;;;;;;;177.23;158.65;;;18.60;99.90;;;;;;6158368;23;20060;-81
2023/09/10 07:32:31;;;;;;;197.82;171.95;;;18.70;99.90;;;;;;6183130;23;20013;-81
2023/09/10 07:34:56;;;;;;;176.90;158.20;;;18.80;99.90;;;;;;6156695;23;20024;-82
2023/09/10 07:37:22;;;;;;;134.93;123.57;;;18.90;99.90;;;;;;6181683;23;20032;-82
2023/09/10 07:39:47;;;;;;;159.73;144.35;;;19.00;99.90;;;;;;6181850;23;20013;-81
2023/09/10 07:42:13;;;;;;;170.40;151.88;;;19.10;99.90;;;;;;6158447;23;20009;-81
2023/09/10 07:44:40;;;;;;;108.53;99.85;;;19.20;99.90;;;;;;6182361;23;20024;-81
2023/09/10 07:47:06;;;;;;;115.57;106.47;;;19.20;99.90;;;;;;6182310;23;20457;-81
2023/09/10 07:49:31;;;;;;;112.88;103.78;;;19.40;99.90;;;;;;6182067;23;20017;-82
2023/09/10 07:51:57;;;;;;;118.00;108.35;;;19.40;99.90;;;;;;6157762;23;20011;-80
2023/09/10 07:54:22;;;;;;;109.72;101.43;;;19.50;99.90;;;;;;6158920;23;20063;-81
2023/09/10 07:56:49;;;;;;;112.63;103.18;;;19.60;99.90;;;;;;6157157;23;20044;-80
2023/09/10 07:59:15;;;;;;;107.57;99.13;;;19.70;99.90;;;;;;6181854;23;20323;-81
2023/09/10 08:01:40;;;;;;;139.00;126.45;;;19.80;99.90;;;;;;6157325;23;20009;-80
2023/09/10 08:04:06;;;;;;;103.03;94.72;;;19.90;99.90;;;;;;6182024;23;20354;-80
2023/09/10 08:06:32;;;;;;;92.07;84.82;;;20.00;99.90;;;;;;6181600;23;20013;-80
2023/09/10 08:08:58;;;;;;;90.25;83.18;;;20.10;99.90;;;;;;6181413;23;20013;-80
2023/09/10 08:11:23;;;;;;;91.15;84.28;;;20.20;99.90;;;;;;6181945;23;20020;-81
2023/09/10 08:13:50;;;;;;;115.72;106.10;;;20.40;99.90;;;;;;6182619;23;20066;-81
2023/09/10 08:16:17;;;;;;;102.55;94.40;;;20.40;99.90;;;;;;6181107;23;20062;-81
2023/09/10 08:18:44;;;;;;;107.25;98.57;;;20.60;99.90;;;;;;6181722;23;20013;-81
2023/09/10 08:21:10;;;;;;;98.90;90.88;;;20.70;99.90;;;;;;6181879;23;20045;-81
2023/09/10 08:23:36;;;;;;;97.00;89.40;;;20.80;99.90;;;;;;6182079;23;20091;-81
2023/09/10 08:26:02;;;;;;;73.30;67.38;;;20.90;99.90;;;;;;6181793;23;20014;-81
2023/09/10 08:28:28;;;;;;;69.22;63.67;;;21.00;99.90;;;;;;6181554;23;20084;-81
2023/09/10 08:30:54;;;;;;;71.53;66.20;;;21.10;99.90;;;;;;6181502;23;20013;-81
2023/09/10 08:33:21;;;;;;;83.03;76.53;;;21.20;99.90;;;;;;6182207;23;20124;-81
2023/09/10 08:35:49;;;;;;;81.45;75.10;;;21.40;99.90;;;;;;6181562;23;20013;-81
2023/09/10 08:38:15;;;;;;;74.18;68.45;;;21.60;99.90;;;;;;6156893;23;20009;-81
2023/09/10 08:40:59;;;;;;;71.25;65.68;;;22.00;99.90;;;;;;6181470;23;20350;-82
2023/09/10 08:43:40;;;;;;;61.42;56.78;;;22.60;99.90;;;;;;6181151;23;20063;-82
2023/09/10 08:46:09;;;;;;;51.92;48.03;;;23.20;99.90;;;;;;6181116;23;20013;-83
2023/09/10 08:48:39;;;;;;;58.20;53.78;;;23.40;99.90;;;;;;6181695;23;20013;-83
2023/09/10 08:51:05;;;;;;;54.08;49.90;;;23.90;99.90;;;;;;6182383;23;20009;-83
2023/09/10 08:53:32;;;;;;;55.90;51.75;;;24.20;99.90;;;;;;6182262;23;20005;-83
2023/09/10 08:55:59;;;;;;;51.92;47.78;;;24.50;99.90;;;;;;6156212;23;20013;-84
2023/09/10 08:58:27;;;;;;;47.88;44.17;;;24.90;99.90;;;;;;6157291;23;20063;-84
2023/09/10 09:00:54;;;;;;;48.95;45.05;;;25.00;99.90;;;;;;6182286;23;20016;-85
2023/09/10 09:03:20;;;;;;;49.72;46.03;;;25.20;99.90;;;;;;6156518;23;20052;-83
2023/09/10 09:05:48;;;;;;;47.45;43.88;;;25.20;99.90;;;;;;6181787;23;20080;-85
2023/09/10 09:08:23;;;;;;;42.47;39.17;;;25.30;99.90;;;;;;6182166;23;20071;-83
2023/09/10 09:10:50;;;;;;;43.65;39.97;;;25.40;99.90;;;;;;6157598;23;20063;-83
2023/09/10 09:13:17;;;;;;;38.70;35.65;;;25.60;99.90;;;;;;6182233;23;20005;-82
2023/09/10 09:15:44;;;;;;;38.95;35.85;;;25.80;99.90;;;;;;6157206;23;20092;-82
2023/09/10 09:18:14;;;;;;;39.85;36.85;;;25.90;99.90;;;;;;6157507;23;20013;-84
2023/09/10 09:20:44;;;;;;;37.53;34.65;;;26.20;99.90;;;;;;6182572;23;20016;-85
2023/09/10 09:23:19;;;;;;;35.35;32.75;;;26.60;99.90;;;;;;6182211;23;20084;-85
2023/09/10 09:25:46;;;;;;;37.92;34.97;;;27.00;99.90;;;;;;6180738;23;20449;-83
2023/09/10 09:28:12;;;;;;;33.67;30.98;;;27.40;99.90;;;;;;6182064;23;20013;-83
2023/09/10 09:30:38;;;;;;;31.25;28.67;;;27.60;99.90;;;;;;6156201;23;20009;-83
2023/09/10 09:33:04;;;;;;;32.40;29.63;;;27.80;99.90;;;;;;6181964;23;20009;-83
2023/09/10 09:35:33;;;;;;;29.75;27.23;;;27.80;99.90;;;;;;6181550;23;20024;-82
2023/09/10 09:38:10;;;;;;;30.27;27.80;;;27.80;99.90;;;;;;6156780;23;20020;-84
2023/09/10 09:40:36;;;;;;;32.03;29.73;;;27.70;99.90;;;;;;6182445;23;20020;-83
2023/09/10 09:43:05;;;;;;;29.95;27.52;;;27.60;99.90;;;;;;6183409;23;20084;-84
2023/09/10 09:45:34;;;;;;;29.98;27.40;;;27.60;99.90;;;;;;6183960;23;20523;-83
2023/09/10 09:48:03;;;;;;;30.25;27.85;;;27.70;99.90;;;;;;6184288;23;20009;-83
2023/09/10 09:50:30;;;;;;;29.98;27.83;;;27.80;99.90;;;;;;6184080;23;20017;-84
2023/09/10 09:53:04;;;;;;;27.20;25.02;;;27.90;99.90;;;;;;6183696;23;20013;-83
2023/09/10 09:55:44;;;;;;;27.05;24.95;;;28.10;99.90;;;;;;6183382;23;20009;-85
2023/09/10 09:58:11;;;;;;;27.38;25.17;;;28.10;99.90;;;;;;6159464;23;20036;-83
2023/09/10 10:00:40;;;;;;;27.00;24.65;;;28.20;99.90;;;;;;6184216;23;20020;-81
2023/09/10 10:03:05;;;;;;;25.02;22.98;;;28.40;99.90;;;;;;6159312;23;20009;-82
2023/09/10 10:05:37;;;;;;;25.88;23.88;;;28.60;99.90;;;;;;6159192;23;20012;-83
2023/09/10 10:08:07;;;;;;;23.48;21.65;;;28.70;99.90;;;;;;6183777;23;20013;-83
2023/09/10 10:10:38;;;;;;;24.60;22.58;;;28.50;99.90;;;;;;6184356;23;20013;-83
2023/09/10 10:13:04;;;;;;;24.35;22.30;;;28.60;99.90;;;;;;6159036;23;20017;-82
2023/09/10 10:15:30;;;;;;;22.23;20.42;;;28.60;99.90;;;;;;6183661;23;20008;-83
2023/09/10 10:18:05;;;;;;;22.27;20.58;;;28.70;99.90;;;;;;6159183;23;20021;-82
2023/09/10 10:20:32;;;;;;;21.02;19.25;;;28.60;99.90;;;;;;6184097;23;20488;-82
2023/09/10 10:22:58;;;;;;;21.58;19.88;;;28.50;99.90;;;;;;6182627;23;20017;-82
2023/09/10 10:25:27;;;;;;;20.85;18.77;;;28.80;99.90;;;;;;6182888;23;20056;-83
2023/09/10 10:27:54;;;;;;;20.48;18.60;;;28.60;99.90;;;;;;6158203;23;20087;-82
2023/09/10 10:30:22;;;;;;;21.02;18.80;;;28.50;99.90;;;;;;6156860;23;20009;-82
2023/09/10 10:32:50;;;;;;;19.88;17.00;;;28.60;99.90;;;;;;6158624;23;20013;-82
2023/09/10 10:35:15;;;;;;;20.50;18.80;;;28.60;99.90;;;;;;6183159;23;20011;-82
2023/09/10 10:37:51;;;;;;;18.63;15.90;;;28.80;99.90;;;;;;6183588;23;20451;-81
2023/09/10 10:40:34;;;;;;;17.65;15.90;;;28.90;99.90;;;;;;6183653;23;20318;-82
2023/09/10 10:43:09;;;;;;;18.38;16.30;;;28.90;99.90;;;;;;6183353;23;20021;-82
2023/09/10 10:45:35;;;;;;;22.98;15.68;;;29.00;99.90;;;;;;6182679;23;20135;-83
2023/09/10 10:48:12;;;;;;;20.55;15.68;;;29.20;99.90;;;;;;6183264;23;20350;-82
2023/09/10 10:50:39;;;;;;;18.20;15.70;;;29.20;99.90;;;;;;6183520;23;20013;-82
2023/09/10 10:53:17;;;;;;;17.73;14.10;;;29.20;99.90;;;;;;6183428;23;20457;-82
2023/09/10 10:55:44;;;;;;;18.40;15.45;;;29.30;99.90;;;;;;6182850;23;20345;-83
2023/09/10 10:58:09;;;;;;;16.02;14.35;;;29.30;99.90;;;;;;6183117;23;20516;-82
2023/09/10 11:00:35;;;;;;;15.98;14.18;;;29.50;99.90;;;;;;6182626;23;20013;-82
2023/09/10 11:03:15;;;;;;;16.60;14.00;;;29.40;99.90;;;;;;6181996;23;20475;-83
2023/09/10 11:05:53;;;;;;;16.85;13.27;;;29.40;99.90;;;;;;6155928;23;20020;-83
2023/09/10 11:08:29;;;;;;;19.98;14.02;;;29.40;99.90;;;;;;6182239;23;20009;-83
2023/09/10 11:10:55;;;;;;;19.85;11.93;;;29.50;99.90;;;;;;6158295;23;20009;-82
2023/09/10 11:13:24;;;;;;;18.17;12.23;;;29.60;99.90;;;;;;6182373;23;20020;-83
2023/09/10 11:16:06;;;;;;;20.60;13.38;;;29.60;99.90;;;;;;6182437;23;20119;-82
2023/09/10 11:18:35;;;;;;;18.90;12.88;;;29.70;99.90;;;;;;6183325;23;20472;-82
2023/09/10 11:21:01;;;;;;;15.65;13.43;;;29.80;99.90;;;;;;6158542;23;20013;-82
2023/09/10 11:23:27;;;;;;;22.23;13.00;;;29.90;99.90;;;;;;6156386;23;20449;-81
2023/09/10 11:25:53;;;;;;;14.75;11.40;;;30.10;99.90;;;;;;6181806;23;20101;-82
2023/09/10 11:28:41;;;;;;;19.83;11.48;;;30.40;99.90;;;;;;6183134;23;20091;-81
2023/09/10 11:31:38;;;;;;;19.65;11.30;;;30.80;99.90;;;;;;6158721;23;20017;-82
2023/09/10 11:34:22;;;;;;;17.85;11.63;;;31.10;99.90;;;;;;6181692;23;20009;-82
2023/09/10 11:36:50;;;;;;;19.42;10.65;;;31.20;99.90;;;;;;6181126;23;20315;-84
2023/09/10 11:39:17;;;;;;;23.35;11.50;;;31.40;99.90;;;;;;6158090;23;20026;-84
2023/09/10 11:41:53;;;;;;;21.25;11.23;;;31.40;99.90;;;;;;6182390;23;20473;-85
2023/09/10 11:44:19;;;;;;;19.65;10.43;;;31.50;99.90;;;;;;6182108;23;20021;-84
2023/09/10 11:46:44;;;;;;;24.77;11.18;;;31.30;99.90;;;;;;6157164;23;20059;-83
2023/09/10 11:49:11;;;;;;;24.42;11.05;;;31.30;99.90;;;;;;6183029;23;20049;-84
2023/09/10 11:51:51;;;;;;;18.70;10.45;;;31.20;99.90;;;;;;6157218;23;20084;-83
2023/09/10 11:54:18;;;;;;;20.65;10.75;;;31.20;99.90;;;;;;6181530;23;20334;-84
2023/09/10 11:56:55;;;;;;;18.48;9.85;;;31.10;99.90;;;;;;6157792;23;20465;-82
2023/09/10 11:59:25;;;;;;;19.02;9.55;;;31.10;95.90;;;;;;6182928;23;20012;-85
2023/09/10 12:01:55;;;;;;;20.20;10.05;;;31.10;97.70;;;;;;6158702;23;20013;-83
2023/09/10 12:04:29;;;;;;;21.35;9.80;;;30.90;99.90;;;;;;6181942;23;20087;-84
2023/09/10 12:06:54;;;;;;;23.30;10.68;;;30.90;99.90;;;;;;6181477;23;20017;-83
2023/09/10 12:09:20;;;;;;;54.13;11.55;;;31.00;99.90;;;;;;6183468;23;20020;-84
2023/09/10 12:11:47;;;;;;;20.58;9.30;;;31.10;99.90;;;;;;6184410;23;20032;-82
2023/09/10 12:14:13;;;;;;;21.55;10.00;;;31.30;92.30;;;;;;6184278;23;20056;-83
2023/09/10 12:16:39;;;;;;;27.25;10.70;;;31.30;99.90;;;;;;6183176;23;20051;-84
2023/09/10 12:19:05;;;;;;;19.17;9.68;;;31.20;99.90;;;;;;6157439;23;20453;-83
2023/09/10 12:21:31;;;;;;;20.48;10.10;;;31.30;99.90;;;;;;6183031;23;20394;-83
2023/09/10 12:23:57;;;;;;;21.50;9.52;;;31.40;99.90;;;;;;6183105;23;20020;-81
2023/09/10 12:26:22;;;;;;;21.17;9.35;;;31.60;97.90;;;;;;6182606;23;20024;-82
2023/09/10 12:28:50;;;;;;;17.52;8.95;;;31.40;99.90;;;;;;6181584;23;20039;-81